Date,TemperatureHighF,TemperatureAvgF,TemperatureLowF,DewpointHighF,DewpointAvgF,DewpointLowF,HumidityHigh,HumidityAvg,HumidityLow,PressureMaxIn,PressureMinIn,WindSpeedMaxMPH,WindSpeedAvgMPH,GustSpeedMaxMPH,PrecipitationSumIn
2013-1-1,50.8,45.7,42.4,48.0,39.1,28.0,96,79,54,30.12,29.95,5,0,7,0.28
2013-1-2,50.4,44.9,40.5,47.0,37.6,30.0,96,77,58,30.19,29.93,6,1,11,0.13
2013-1-3,43.2,39.2,31.7,34.0,29.5,26.0,91,69,57,30.29,30.15,5,1,7,0.00
2013-1-4,48.6,37.4,28.1,32.0,23.7,19.0,94,61,31,30.35,30.23,8,1,15,0.00
2013-1-5,50.8,39.9,27.8,30.0,23.0,19.0,93,53,29,30.41,30.24,3,0,6,0.00
2013-1-6,53.0,44.7,39.2,38.0,34.5,28.0,89,68,52,30.24,30.06,5,0,10,0.01
2013-1-7,50.3,41.1,33.2,33.0,29.6,27.0,89,65,44,30.45,30.21,6,1,8,0.00
2013-1-8,52.3,43.1,29.1,40.0,34.3,26.0,94,72,56,30.47,30.38,3,0,4,0.00
2013-1-9,61.8,51.0,38.5,51.0,44.0,35.0,92,78,64,30.47,30.37,2,0,4,0.00
2013-1-10,60.6,52.6,46.1,46.0,39.6,31.0,94,65,35,30.53,30.41,6,1,10,0.00
2013-1-11,51.1,44.4,41.3,45.0,41.9,40.0,97,91,67,30.40,30.18,7,1,8,0.08
2013-1-12,64.1,53.5,45.0,59.0,51.4,44.0,97,92,82,30.19,30.09,2,0,4,0.01
2013-1-13,70.7,61.7,53.2,62.0,57.7,52.0,97,87,71,30.12,30.03,7,1,13,0.00
2013-1-14,63.9,61.3,54.9,63.0,59.8,53.0,97,95,89,30.14,30.05,5,1,14,1.30
2013-1-15,53.9,43.5,40.3,52.0,42.2,39.0,97,95,92,30.22,30.09,11,3,15,0.45
2013-1-16,49.8,44.2,39.3,48.0,43.0,38.0,97,95,91,30.09,29.97,6,1,9,0.70
2013-1-17,49.4,42.3,32.7,49.0,41.0,32.0,97,95,92,30.20,29.92,23,3,23,2.27
2013-1-18,43.8,37.2,31.5,35.0,30.1,24.0,97,77,47,30.54,30.20,5,1,14,0.36
2013-1-19,52.1,39.6,27.9,34.0,28.6,25.0,95,68,37,30.52,30.17,3,0,6,0.01
2013-1-20,60.5,45.9,30.6,35.0,30.3,27.0,88,58,31,30.16,30.02,9,1,13,0.00
2013-1-21,58.1,43.5,31.0,35.0,26.2,13.0,94,56,28,30.09,29.89,12,2,20,0.00
2013-1-22,39.0,32.5,27.5,17.0,2.5,-7.0,53,29,17,30.29,30.00,9,2,16,0.00
2013-1-23,41.4,33.2,23.4,23.0,13.4,1.0,83,46,28,30.38,30.06,5,0,12,0.00
2013-1-24,38.0,31.4,24.3,27.0,12.2,1.0,82,48,28,30.52,29.99,10,2,18,0.00
2013-1-25,29.1,24.5,22.8,24.0,13.9,4.0,91,67,37,30.54,30.15,3,1,8,0.00
2013-1-26,38.9,32.0,24.6,33.0,28.2,22.0,95,86,76,30.42,30.13,3,0,8,0.09
2013-1-27,42.2,35.0,28.0,28.0,25.3,21.0,83,68,55,30.61,30.42,4,1,9,0.00
2013-1-28,48.5,41.2,33.6,43.0,35.4,27.0,91,80,67,30.50,30.25,4,1,8,0.05
2013-1-29,70.9,56.1,43.6,57.0,49.8,42.0,97,81,60,30.25,30.03,6,1,7,0.00
2013-1-30,71.8,65.5,55.0,63.0,60.5,53.0,94,84,67,30.02,29.37,13,4,25,0.93
2013-1-31,55.4,42.2,34.5,53.0,25.4,17.0,90,53,35,30.00,29.43,14,5,23,0.02